クライストチャーチ の空港の天気 - METARとTAF

クライストチャーチ国際空港 ( NZCH / CHC ) - ニュージーランド クライストチャーチ
飛行場実況気象(Metar)
観測時間08/16 18:30 NZST (08/16 06:30 UTC)
風向・風速北西 8m/s
視程10km以上
天気現象
なし
気温14℃
湿度38%
気圧994hPa
METARNZCH 160630Z AUTO 31016KT 9999 NCD 14/00 Q0994 NOSIG
過去の天気等 Google飛行場航空写真 Wunderground天気予報

過去48時間のMETAR

飛行場予報(TAF)
発表時間: 8/16 17:07 NZST (8/16 05:07 UTC)
予報対象時間: 16日18時 NZST ~ 17日18時 NZST
風向・風速西北西 9m/s 瞬間風速 15m/s
視程10km以上
なし
16日19時 NZST ~ 16日21時 NZST に徐々に
風向・風速西北西 4m/s
17日10時 NZST ~ 17日12時 NZST に徐々に
風向・風速西南西 5m/s
17日13時 NZST から
風向・風速南南西 8m/s 瞬間風速 13m/s
視程10km以上
天気現象弱いしゅう雨
全天の4割程度の雲 雲底高度 550m
全天の8割程度の雲 雲底高度 1520m
17日13時 NZST ~ 17日15時 NZST に一時的に
視程4000m
天気現象しゅう雨
少しの積乱雲 雲底高度 610m
17日16時 NZST ~ 17日18時 NZST に徐々に
風向・風速南西 6m/s
TAF NZCH 160507Z 1606/1706 30018G30KT CAVOK
BECMG 1607/1609 30008KT
BECMG 1622/1700 24010KT
FM170100 20015G25KT 9999 -SHRA SCT018 BKN050
TEMPO 1701/1703 4000 SHRA FEW020CB
BECMG 1704/1706 22012KT